Time;durP1;ratioP1;P1;durP2;ratioP2;P2;SDS_P1;SDS_P2;PMS_P1;PMS_P2;Temp;Humidity;BMP_temperature;BMP_pressure;BME280_temperature;BME280_humidity;BME280_pressure;Samples;Min_cycle;Max_cycle;Signal;HPM_P1;HPM_P2
2020/12/12 00:00:20;;;;;;;102.32;43.65;;;;;;;0.41;85.70;99224.05;1707959;84;21219;-76
2020/12/12 00:02:49;;;;;;;107.30;45.63;;;;;;;0.41;85.72;99226.66;1707731;82;21160;-76
2020/12/12 00:05:15;;;;;;;133.07;47.62;;;;;;;0.42;85.73;99228.30;1667029;84;21164;-76
2020/12/12 00:07:41;;;;;;;112.32;47.33;;;;;;;0.45;85.75;99228.06;1708103;82;21152;-76
2020/12/12 00:10:08;;;;;;;140.85;54.58;;;;;;;0.46;85.75;99228.86;1707905;84;21269;-77
2020/12/12 00:12:35;;;;;;;110.20;46.08;;;;;;;0.46;85.78;99221.00;1715534;83;21173;-76
2020/12/12 00:15:04;;;;;;;121.37;49.35;;;;;;;0.47;85.79;99228.74;1719175;83;21125;-76
2020/12/12 00:17:30;;;;;;;136.97;49.08;;;;;;;0.47;85.81;99231.36;1719170;82;21136;-76
2020/12/12 00:19:57;;;;;;;108.30;46.15;;;;;;;0.45;85.80;99222.81;1719358;83;21160;-76
2020/12/12 00:22:23;;;;;;;99.22;42.10;;;;;;;0.44;85.79;99223.77;1719479;83;22252;-76
2020/12/12 00:24:49;;;;;;;98.27;40.80;;;;;;;0.43;85.81;99222.10;1719149;83;21158;-76
2020/12/12 00:27:15;;;;;;;84.97;36.75;;;;;;;0.42;85.82;99220.44;1719393;83;21144;-76
2020/12/12 00:29:42;;;;;;;100.62;43.63;;;;;;;0.40;85.82;99222.38;1719409;83;21168;-77
2020/12/12 00:32:08;;;;;;;86.95;39.67;;;;;;;0.40;85.84;99227.62;1719191;83;21139;-76
2020/12/12 00:34:34;;;;;;;107.12;47.13;;;;;;;0.39;85.84;99225.95;1719435;82;21589;-76
2020/12/12 00:37:00;;;;;;;88.10;35.50;;;;;;;0.37;85.85;99217.41;1719186;83;21151;-76
2020/12/12 00:39:27;;;;;;;99.77;43.13;;;;;;;0.35;85.86;99210.14;1719162;82;21196;-76
2020/12/12 00:41:53;;;;;;;97.30;39.88;;;;;;;0.32;85.87;99220.90;1719069;83;21919;-76
2020/12/12 00:44:19;;;;;;;90.77;39.45;;;;;;;0.29;85.87;99217.23;1719363;83;21136;-76
2020/12/12 00:46:46;;;;;;;80.95;38.20;;;;;;;0.28;85.89;99215.57;1719122;83;21198;-76
2020/12/12 00:49:12;;;;;;;145.85;56.35;;;;;;;0.28;85.91;99226.05;1719194;82;21155;-77
2020/12/12 00:51:39;;;;;;;126.53;43.70;;;;;;;0.27;85.91;99218.34;1719370;82;21157;-76
2020/12/12 00:54:05;;;;;;;96.92;41.50;;;;;;;0.26;85.94;99216.20;1719078;82;21569;-76
2020/12/12 00:56:32;;;;;;;105.15;41.20;;;;;;;0.26;85.97;99218.82;1719334;82;21188;-76
2020/12/12 00:58:58;;;;;;;105.40;42.95;;;;;;;0.24;85.97;99217.30;1719456;83;21272;-77
2020/12/12 01:01:24;;;;;;;139.55;54.10;;;;;;;0.24;85.98;99214.20;1719410;83;21452;-76
2020/12/12 01:03:50;;;;;;;103.70;41.33;;;;;;;0.25;86.00;99215.01;1719439;83;21128;-76
2020/12/12 01:06:18;;;;;;;121.87;46.18;;;;;;;0.24;86.02;99220.77;1719425;83;21159;-76
2020/12/12 01:08:45;;;;;;;103.55;43.40;;;;;;;0.23;86.02;99216.47;1719451;82;21133;-76
2020/12/12 01:11:12;;;;;;;101.27;42.65;;;;;;;0.22;86.04;99213.49;1719286;83;21188;-76
2020/12/12 01:13:38;;;;;;;102.30;41.42;;;;;;;0.21;86.06;99215.76;1729094;83;21143;-76
2020/12/12 01:16:09;;;;;;;97.82;41.75;;;;;;;0.20;86.10;99218.05;1729243;81;21136;-76
2020/12/12 01:18:38;;;;;;;99.80;40.60;;;;;;;0.17;86.11;99207.84;1729382;81;21180;-76
2020/12/12 01:21:04;;;;;;;92.27;36.20;;;;;;;0.16;86.12;99214.03;1728517;82;21148;-76
2020/12/12 01:23:31;;;;;;;91.63;35.23;;;;;;;0.19;86.14;99219.01;1729618;83;22101;-76
2020/12/12 01:25:59;;;;;;;107.78;44.80;;;;;;;0.19;86.18;99224.73;1729425;83;21195;-76
2020/12/12 01:28:25;;;;;;;120.55;45.73;;;;;;;0.18;86.18;99219.96;1729492;83;21164;-76
2020/12/12 01:30:53;;;;;;;90.42;38.85;;;;;;;0.17;86.19;99228.81;1729444;82;21743;-76
2020/12/12 01:33:22;;;;;;;96.02;39.88;;;;;;;0.19;86.22;99230.80;1729341;81;21604;-76
2020/12/12 01:35:49;;;;;;;85.97;35.28;;;;;;;0.18;86.23;99229.14;1729610;83;21648;-76
2020/12/12 01:38:15;;;;;;;95.03;38.17;;;;;;;0.17;86.26;99228.81;1729214;83;21255;-76
2020/12/12 01:40:41;;;;;;;133.95;49.73;;;;;;;0.15;86.27;99224.16;1729444;82;21128;-76
2020/12/12 01:43:09;;;;;;;81.90;36.90;;;;;;;0.15;86.30;99230.72;1729603;82;21203;-76
2020/12/12 01:45:36;;;;;;;84.92;34.92;;;;;;;0.17;86.30;99222.73;1729075;82;21187;-76
2020/12/12 01:48:02;;;;;;;83.35;34.70;;;;;;;0.17;86.32;99227.97;1729624;81;21210;-75
2020/12/12 01:50:28;;;;;;;88.25;39.40;;;;;;;0.17;86.33;99230.13;1728901;81;21531;-76
2020/12/12 01:52:56;;;;;;;101.45;41.90;;;;;;;0.15;86.36;99223.33;1729236;82;21219;-76
2020/12/12 01:55:23;;;;;;;83.85;34.18;;;;;;;0.14;86.38;99222.50;1729374;83;21171;-76
2020/12/12 01:57:51;;;;;;;98.45;39.30;;;;;;;0.11;86.40;99216.69;1729407;83;21562;-76
2020/12/12 02:00:19;;;;;;;90.42;37.60;;;;;;;0.11;86.42;99229.31;1729039;82;21292;-76
2020/12/12 02:02:53;;;;;;;106.07;41.42;;;;;;;0.10;86.45;99225.53;1729427;83;21167;-76
2020/12/12 02:05:42;;;;;;;101.05;39.63;;;;;;;0.13;86.46;99222.64;1729107;81;21183;-76
2020/12/12 02:08:15;;;;;;;100.87;39.35;;;;;;;0.13;86.49;99224.79;1744648;82;21147;-76
2020/12/12 02:10:45;;;;;;;89.83;39.78;;;;;;;0.15;86.49;99228.09;1748003;82;21579;-77
2020/12/12 02:13:11;;;;;;;;;;;;;;;0.17;86.49;99217.48;1754043;81;21169;-76
2020/12/12 02:15:37;;;;;;;95.95;40.28;;;;;;;0.17;86.51;99219.63;1754367;81;20280;-76
2020/12/12 02:18:06;;;;;;;112.68;40.70;;;;;;;0.14;86.51;99211.20;1754440;81;21594;-76
2020/12/12 02:20:33;;;;;;;97.53;42.08;;;;;;;0.14;86.54;99214.63;1752327;81;21138;-76
2020/12/12 02:22:59;;;;;;;100.70;40.65;;;;;;;0.12;86.54;99210.49;1754625;81;21134;-76
2020/12/12 02:25:25;;;;;;;83.62;36.05;;;;;;;0.12;86.56;99205.25;1754485;81;21186;-76
2020/12/12 02:27:55;;;;;;;84.30;37.15;;;;;;;0.13;86.58;99209.06;1754407;81;21607;-76
2020/12/12 02:30:20;;;;;;;116.77;47.33;;;;;;;0.14;86.59;99202.84;1754146;81;21145;-76
2020/12/12 02:32:47;;;;;;;99.05;40.63;;;;;;;0.14;86.61;99198.91;1754367;81;21198;-76
2020/12/12 02:35:13;;;;;;;80.65;36.80;;;;;;;0.15;86.62;99195.33;1754498;81;21622;-76
2020/12/12 02:37:39;;;;;;;88.40;38.58;;;;;;;0.14;86.63;99197.59;1754365;81;21512;-76
2020/12/12 02:40:06;;;;;;;97.95;41.02;;;;;;;0.12;86.66;99200.84;1754387;81;21177;-76
2020/12/12 02:42:32;;;;;;;95.90;42.05;;;;;;;0.09;86.66;99199.80;1754410;81;21158;-76
2020/12/12 02:44:58;;;;;;;84.22;33.63;;;;;;;0.09;86.68;99199.80;1754356;81;21582;-76
2020/12/12 02:47:24;;;;;;;84.07;35.65;;;;;;;0.10;86.70;99200.16;1754387;81;21149;-76
2020/12/12 02:50:09;;;;;;;77.08;29.50;;;;;;;0.10;86.72;99192.77;1754374;81;21303;-76
2020/12/12 02:52:36;;;;;;;95.45;41.58;;;;;;;0.09;86.74;99187.17;1754405;81;21161;-76
2020/12/12 02:55:07;;;;;;;97.57;43.05;;;;;;;0.08;86.76;99192.89;1754420;81;21189;-77
2020/12/12 02:57:34;;;;;;;92.37;40.70;;;;;;;0.10;86.77;99194.92;1754430;81;21165;-76
2020/12/12 03:00:01;;;;;;;93.07;39.25;;;;;;;0.10;86.81;99190.98;1754273;81;21169;-76
2020/12/12 03:02:27;;;;;;;89.87;36.15;;;;;;;0.10;86.81;99193.61;1754424;81;21247;-77
2020/12/12 03:04:53;;;;;;;84.62;36.65;;;;;;;0.10;86.83;99192.30;1754307;81;21677;-76
2020/12/12 03:07:19;;;;;;;88.30;34.67;;;;;;;0.08;86.82;99190.27;1754373;81;21126;-76
2020/12/12 03:09:46;;;;;;;79.97;35.20;;;;;;;0.08;86.86;99190.27;1754363;81;21157;-76
2020/12/12 03:12:12;;;;;;;84.22;36.77;;;;;;;0.07;86.85;99188.61;1754310;80;21159;-76
2020/12/12 03:14:38;;;;;;;84.52;34.95;;;;;;;0.06;86.88;99188.28;1754442;81;22066;-76
2020/12/12 03:17:09;;;;;;;95.45;37.15;;;;;;;0.07;86.88;99195.67;1754262;81;21150;-76
2020/12/12 03:19:33;;;;;;;89.77;38.38;;;;;;;0.06;86.91;99195.31;1753953;81;21157;-76
2020/12/12 03:21:59;;;;;;;80.30;32.08;;;;;;;0.04;86.91;99196.73;1754452;81;21118;-76
2020/12/12 03:24:25;;;;;;;94.77;37.65;;;;;;;0.02;86.94;99193.44;1754397;81;21126;-76
2020/12/12 03:26:51;;;;;;;79.50;34.75;;;;;;;0.01;86.95;99189.14;1754412;81;21133;-76
2020/12/12 03:29:18;;;;;;;86.42;33.23;;;;;;;0.02;86.96;99198.67;1754191;81;21639;-76
2020/12/12 03:31:44;;;;;;;74.85;33.13;;;;;;;0.00;86.97;99199.30;1754379;81;21146;-76
2020/12/12 03:34:10;;;;;;;83.10;35.40;;;;;;;-0.02;87.00;99195.49;1754248;81;21133;-76
2020/12/12 03:36:36;;;;;;;83.78;38.33;;;;;;;-0.03;87.02;99206.92;1754499;81;21130;-76
2020/12/12 03:39:03;;;;;;;98.30;41.55;;;;;;;-0.05;87.03;99201.00;1754402;81;22084;-76
2020/12/12 03:41:29;;;;;;;82.78;35.83;;;;;;;-0.03;87.05;99194.30;1754240;81;21570;-76
2020/12/12 03:43:55;;;;;;;88.30;37.78;;;;;;;-0.04;87.09;99199.22;1754220;81;21141;-76
2020/12/12 03:46:22;;;;;;;76.90;32.78;;;;;;;-0.03;87.09;99200.85;1754433;81;21141;-76
2020/12/12 03:48:48;;;;;;;80.30;35.08;;;;;;;-0.03;87.11;99198.23;1754432;81;21524;-76
2020/12/12 03:51:14;;;;;;;73.37;32.75;;;;;;;-0.02;87.13;99198.59;1754214;81;21714;-76
2020/12/12 03:53:40;;;;;;;82.70;36.95;;;;;;;-0.01;87.13;99200.26;1754478;81;21153;-76
2020/12/12 03:56:07;;;;;;;82.62;34.48;;;;;;;-0.01;87.15;99198.95;1754412;81;21161;-76
2020/12/12 03:58:33;;;;;;;86.17;38.38;;;;;;;-0.02;87.15;99202.52;1754199;81;21162;-76
2020/12/12 04:00:59;;;;;;;101.45;40.23;;;;;;;-0.02;87.18;99199.42;1754405;81;21590;-76
2020/12/12 04:03:25;;;;;;;85.40;36.85;;;;;;;-0.03;87.19;99206.09;1754331;81;21200;-76
2020/12/12 04:05:52;;;;;;;82.22;34.00;;;;;;;-0.04;87.20;99203.15;1754363;81;21177;-76
2020/12/12 04:08:18;;;;;;;84.35;34.18;;;;;;;-0.05;87.21;99200.17;1754381;81;21132;-76
2020/12/12 04:10:44;;;;;;;82.37;32.98;;;;;;;-0.05;87.22;99197.55;1754490;81;21145;-76
2020/12/12 04:13:11;;;;;;;73.50;31.68;;;;;;;-0.04;87.23;99204.45;1753372;81;21146;-76
2020/12/12 04:15:37;;;;;;;92.70;37.13;;;;;;;-0.02;87.26;99209.07;1752227;81;21246;-76
2020/12/12 04:18:03;;;;;;;94.45;36.10;;;;;;;-0.05;87.26;99207.55;1752228;81;21181;-76
2020/12/12 04:20:30;;;;;;;88.90;38.28;;;;;;;-0.06;87.27;99207.67;1752192;81;21126;-76
2020/12/12 04:22:56;;;;;;;78.12;31.60;;;;;;;-0.10;87.28;99199.72;1752214;81;21575;-76
2020/12/12 04:25:22;;;;;;;78.22;33.98;;;;;;;-0.11;87.31;99200.70;1752245;81;21169;-76
2020/12/12 04:27:48;;;;;;;77.15;33.58;;;;;;;-0.13;87.32;99194.27;1752187;81;21193;-76
2020/12/12 04:30:15;;;;;;;78.00;30.45;;;;;;;-0.13;87.33;99199.99;1752107;81;21173;-76
2020/12/12 04:32:41;;;;;;;76.65;32.00;;;;;;;-0.15;87.36;99200.14;1752400;81;21145;-76
2020/12/12 04:35:07;;;;;;;78.87;31.77;;;;;;;-0.18;87.39;99204.34;1752384;81;21575;-76
2020/12/12 04:37:33;;;;;;;82.60;35.28;;;;;;;-0.17;87.42;99203.83;1752378;81;21165;-76
2020/12/12 04:40:00;;;;;;;85.42;35.28;;;;;;;-0.19;87.42;99200.05;1752452;81;21154;-76
2020/12/12 04:42:26;;;;;;;88.35;36.77;;;;;;;-0.19;87.43;99200.52;1752302;81;21158;-76
2020/12/12 04:44:53;;;;;;;93.90;34.58;;;;;;;-0.17;87.45;99203.83;1752335;81;21166;-76
2020/12/12 04:47:19;;;;;;;76.57;29.48;;;;;;;-0.14;87.48;99202.28;1752319;81;21555;-76
2020/12/12 04:49:45;;;;;;;83.45;34.60;;;;;;;-0.14;87.48;99207.52;1730881;81;21137;-76
2020/12/12 04:52:12;;;;;;;75.55;30.70;;;;;;;-0.17;87.50;99207.77;1730785;81;21259;-76
2020/12/12 04:54:38;;;;;;;68.35;30.62;;;;;;;-0.15;87.53;99204.55;1752423;81;21169;-76
2020/12/12 04:57:05;;;;;;;76.20;32.10;;;;;;;-0.15;87.52;99192.75;1752419;81;21137;-76
2020/12/12 04:59:33;;;;;;;81.75;35.35;;;;;;;-0.17;87.54;99198.59;1752329;81;21670;-77
2020/12/12 05:02:00;;;;;;;86.05;38.85;;;;;;;-0.17;87.56;99195.97;1752434;81;21126;-76
2020/12/12 05:04:27;;;;;;;85.12;35.13;;;;;;;-0.17;87.58;99196.80;1752424;81;21206;-76
2020/12/12 05:06:53;;;;;;;85.10;35.40;;;;;;;-0.15;87.59;99207.16;1752314;81;21173;-76
2020/12/12 05:09:20;;;;;;;68.17;29.95;;;;;;;-0.15;87.59;99204.55;1752381;81;21142;-76
2020/12/12 05:11:46;;;;;;;84.90;33.55;;;;;;;-0.14;87.60;99208.83;1752324;81;21186;-76
2020/12/12 05:14:16;;;;;;;73.65;30.30;;;;;;;-0.14;87.61;99206.21;1753501;81;21593;-76
2020/12/12 05:16:46;;;;;;;72.30;30.00;;;;;;;-0.14;87.63;99203.59;1754712;81;21200;-76
2020/12/12 05:19:15;;;;;;;60.23;26.25;;;;;;;-0.14;87.62;99206.21;1754565;81;22157;-76
2020/12/12 05:21:50;;;;;;;77.57;35.70;;;;;;;-0.16;87.66;99211.57;1754605;81;21118;-76
2020/12/12 05:24:17;;;;;;;79.62;32.50;;;;;;;-0.17;87.66;99207.77;1754338;81;21610;-76
2020/12/12 05:26:44;;;;;;;80.03;33.45;;;;;;;-0.18;87.69;99206.13;1754333;81;21142;-76
2020/12/12 05:29:12;;;;;;;69.77;28.98;;;;;;;-0.18;87.69;99212.20;1754576;81;21208;-76
2020/12/12 05:31:39;;;;;;;88.17;35.58;;;;;;;-0.19;87.69;99212.31;1754464;81;21186;-77
2020/12/12 05:34:15;;;;;;;74.53;31.48;;;;;;;-0.19;87.71;99217.55;1754459;81;21146;-76
2020/12/12 05:36:44;;;;;;;80.77;32.70;;;;;;;-0.18;87.69;99217.44;1754557;81;21138;-76
2020/12/12 05:39:12;;;;;;;63.87;28.17;;;;;;;-0.17;87.73;99219.08;1754420;81;21130;-76
2020/12/12 05:41:39;;;;;;;77.00;35.70;;;;;;;-0.17;87.73;99224.31;1754332;81;21242;-76
2020/12/12 05:44:05;;;;;;;85.03;33.38;;;;;;;-0.17;87.75;99224.78;1754329;81;21161;-76
2020/12/12 05:46:32;;;;;;;132.50;54.55;;;;;;;-0.18;87.76;99223.15;1754498;81;21130;-77
2020/12/12 05:48:58;;;;;;;120.00;52.33;;;;;;;-0.21;87.75;99219.48;1754408;81;21137;-76
2020/12/12 05:51:28;;;;;;;101.75;43.52;;;;;;;-0.21;87.77;99223.41;1754451;81;21551;-76
2020/12/12 05:53:55;;;;;;;260.82;101.25;;;;;;;-0.22;87.77;99225.67;1754654;81;21173;-76
2020/12/12 05:56:24;;;;;;;223.75;101.07;;;;;;;-0.26;87.78;99220.34;1754344;81;21580;-76
2020/12/12 05:58:52;;;;;;;125.22;59.63;;;;;;;-0.27;87.79;99223.91;1754469;81;21197;-76
2020/12/12 06:01:21;;;;;;;79.92;38.88;;;;;;;-0.26;87.79;99223.80;1754496;81;21575;-76
2020/12/12 06:03:55;;;;;;;87.82;41.73;;;;;;;-0.23;87.81;99224.01;1753768;81;21134;-76
2020/12/12 06:06:23;;;;;;;73.75;31.52;;;;;;;-0.23;87.82;99226.63;1754175;81;21209;-76
2020/12/12 06:09:03;;;;;;;70.03;32.98;;;;;;;-0.23;87.83;99220.08;1754356;81;21145;-76
2020/12/12 06:11:30;;;;;;;69.70;30.60;;;;;;;-0.28;87.85;99218.35;1754509;81;25640;-76
2020/12/12 06:14:02;;;;;;;66.00;26.93;;;;;;;-0.30;87.87;99217.63;1753423;81;21583;-76
2020/12/12 06:16:40;;;;;;;66.67;28.70;;;;;;;-0.26;87.89;99221.66;1852527;77;22629;-76
2020/12/12 06:19:18;;;;;;;68.30;28.77;;;;;;;-0.32;87.91;99219.56;1824740;78;21112;-76
2020/12/12 06:21:47;;;;;;;65.03;27.60;;;;;;;-0.31;87.93;99229.06;1822999;78;21192;-76
2020/12/12 06:24:16;;;;;;;75.70;29.37;;;;;;;-0.31;87.96;99229.06;1755546;81;21652;-77
2020/12/12 06:27:08;;;;;;;80.20;36.90;;;;;;;-0.30;87.97;99235.97;1786474;80;21163;-76
2020/12/12 06:29:40;;;;;;;86.92;36.48;;;;;;;-0.29;87.99;99231.92;1755356;81;21164;-77
2020/12/12 06:32:08;;;;;;;95.17;38.13;;;;;;;-0.26;88.02;99242.13;1786665;80;21192;-76
2020/12/12 06:34:48;;;;;;;107.40;49.90;;;;;;;-0.27;88.03;99240.94;1754866;81;21269;-76
2020/12/12 06:37:32;;;;;;;95.07;38.95;;;;;;;-0.26;88.03;99234.75;1786553;80;21034;-76
2020/12/12 06:40:00;;;;;;;79.87;34.53;;;;;;;-0.24;88.05;99238.06;1755404;81;21581;-76
2020/12/12 06:42:36;;;;;;;75.52;31.10;;;;;;;-0.21;88.07;99236.52;1786275;80;21164;-76
2020/12/12 06:45:20;;;;;;;79.60;37.38;;;;;;;-0.20;88.08;99235.53;1754332;81;21227;-76
2020/12/12 06:47:49;;;;;;;93.27;40.48;;;;;;;-0.21;88.10;99231.28;1786467;80;21201;-77
2020/12/12 06:50:20;;;;;;;88.95;36.95;;;;;;;-0.20;88.13;99235.53;1755489;81;21164;-76
2020/12/12 06:52:46;;;;;;;84.47;34.73;;;;;;;-0.20;88.15;99232.91;1786339;80;21160;-77
2020/12/12 06:55:14;;;;;;;79.67;31.17;;;;;;;-0.18;88.15;99235.77;1755334;81;21680;-77
2020/12/12 07:00:29;;;;;;;113.03;50.33;;;;;;;-0.14;88.21;99226.66;1811339;77;22882;-76
2020/12/12 07:03:06;;;;;;;78.00;33.80;;;;;;;-0.23;88.22;99217.46;1797396;79;21124;-76
2020/12/12 07:05:38;;;;;;;70.57;29.82;;;;;;;-0.24;88.24;99228.41;1796915;79;22133;-76
2020/12/12 07:08:09;;;;;;;71.87;30.85;;;;;;;-0.18;88.25;99233.16;1764558;81;21395;-76
2020/12/12 07:10:40;;;;;;;70.90;30.97;;;;;;;-0.17;88.27;99234.79;1788831;80;21161;-76
2020/12/12 07:13:07;;;;;;;92.12;36.40;;;;;;;-0.16;88.29;99247.41;1779758;80;21149;-76
2020/12/12 07:15:36;;;;;;;76.67;31.85;;;;;;;-0.16;88.30;99243.48;1782426;80;21617;-76
2020/12/12 07:18:07;;;;;;;65.13;25.37;;;;;;;-0.18;88.32;99241.48;1781330;80;21187;-77
2020/12/12 07:20:38;;;;;;;71.40;27.95;;;;;;;-0.18;88.33;99241.02;1757555;80;21609;-76
2020/12/12 07:23:05;;;;;;;73.30;29.92;;;;;;;-0.17;88.34;99243.12;1784469;80;21174;-77
2020/12/12 07:25:33;;;;;;;73.67;29.95;;;;;;;-0.16;88.34;99245.63;1783263;80;21167;-76
2020/12/12 07:28:00;;;;;;;68.50;28.98;;;;;;;-0.14;88.36;99248.13;1776373;80;21112;-76
2020/12/12 07:30:26;;;;;;;68.95;27.30;;;;;;;-0.12;88.35;99247.51;1788585;80;21239;-76
2020/12/12 07:32:53;;;;;;;86.57;34.20;;;;;;;-0.09;88.36;99257.72;1788550;80;21203;-76
2020/12/12 07:35:19;;;;;;;78.87;32.90;;;;;;;-0.07;88.38;99254.00;1788672;80;21541;-76
2020/12/12 07:37:45;;;;;;;77.65;33.45;;;;;;;-0.03;88.39;99254.56;1776971;80;21573;-77
2020/12/12 07:40:12;;;;;;;90.07;36.33;;;;;;;-0.02;88.40;99258.86;1782555;80;21159;-77
2020/12/12 07:42:38;;;;;;;82.80;32.48;;;;;;;0.01;88.41;99259.91;1787342;80;21147;-77
2020/12/12 07:48:06;;;;;;;80.20;30.95;;;;;;;0.12;88.43;99259.81;1810624;78;21901;-77
2020/12/12 07:50:32;;;;;;;81.82;33.50;;;;;;;0.06;88.41;99264.28;1797394;79;21232;-77
2020/12/12 07:53:12;;;;;;;74.85;30.48;;;;;;;0.07;88.42;99270.36;1797140;79;22095;-77
2020/12/12 07:58:20;;;;;;;81.20;31.68;;;;;;;0.11;88.43;99254.22;1811075;78;22433;-77
2020/12/12 08:01:01;;;;;;;74.95;30.43;;;;;;;0.07;88.43;99268.54;1797233;79;21120;-77
2020/12/12 08:03:28;;;;;;;76.90;30.20;;;;;;;0.08;88.44;99267.59;1795238;79;22059;-77
2020/12/12 08:06:06;;;;;;;81.80;32.28;;;;;;;0.07;88.44;99276.41;1794839;79;21651;-77
2020/12/12 08:08:33;;;;;;;78.50;29.82;;;;;;;0.07;88.43;99272.47;1772470;78;21154;-76
2020/12/12 08:11:00;;;;;;;79.47;30.88;;;;;;;0.09;88.44;99278.91;1765582;79;21219;-76
2020/12/12 08:13:30;;;;;;;73.45;30.23;;;;;;;0.09;88.43;99282.36;1769807;79;21160;-76
2020/12/12 08:16:24;;;;;;;78.17;31.30;;;;;;;0.11;88.45;99281.73;1784322;79;22113;-75
2020/12/12 08:18:46;;;;;;;90.75;35.70;;;;;;;0.12;88.45;99280.78;1783978;79;21065;-75
2020/12/12 08:21:18;;;;;;;82.90;32.90;;;;;;;0.17;88.45;99283.85;1787672;79;21593;-75
2020/12/12 08:23:45;;;;;;;126.60;41.65;;;;;;;0.21;88.48;99281.30;1757350;80;21180;-75
2020/12/12 08:26:16;;;;;;;99.28;37.03;;;;;;;0.20;88.48;99282.28;1757441;81;21172;-75
2020/12/12 08:28:43;;;;;;;141.77;43.60;;;;;;;0.22;88.47;99282.96;1756751;81;21208;-75
2020/12/12 08:31:16;;;;;;;117.35;39.58;;;;;;;0.24;88.49;99282.36;1738140;81;21124;-76
2020/12/12 08:33:44;;;;;;;110.90;37.00;;;;;;;0.26;88.50;99280.91;1748064;81;21120;-77
2020/12/12 08:36:16;;;;;;;102.72;35.48;;;;;;;0.28;88.51;99288.98;1748009;81;21255;-77
2020/12/12 08:38:45;;;;;;;100.65;34.18;;;;;;;0.30;88.50;99284.45;1728492;81;21626;-78
2020/12/12 08:41:12;;;;;;;100.27;38.02;;;;;;;0.31;88.50;99280.04;1730870;81;21399;-77
2020/12/12 08:43:41;;;;;;;127.02;45.25;;;;;;;0.31;88.50;99283.50;1727303;81;21181;-77
2020/12/12 08:46:08;;;;;;;115.57;38.92;;;;;;;0.34;88.51;99287.16;1726997;81;21563;-76
2020/12/12 08:48:36;;;;;;;135.75;42.15;;;;;;;0.36;88.50;99291.78;1729779;81;21147;-77
2020/12/12 08:51:07;;;;;;;107.67;37.90;;;;;;;0.39;88.52;99296.75;1731356;81;21128;-77
2020/12/12 08:53:39;;;;;;;109.17;36.50;;;;;;;0.41;88.50;99289.60;1756316;81;21223;-76
2020/12/12 08:56:09;;;;;;;120.10;39.90;;;;;;;0.43;88.51;99295.53;1755940;81;21600;-77
2020/12/12 08:58:46;;;;;;;113.75;39.13;;;;;;;0.43;88.53;99292.91;1759626;81;21129;-77
2020/12/12 09:01:39;;;;;;;196.75;52.03;;;;;;;0.48;88.54;99295.14;1730221;81;21183;-77
2020/12/12 09:04:14;;;;;;;669.35;193.90;;;;;;;0.48;88.54;99299.91;1744970;81;21576;-77
2020/12/12 09:06:49;;;;;;;482.17;169.10;;;;;;;0.50;88.54;99303.69;1748886;81;22216;-77
2020/12/12 09:09:29;;;;;;;294.25;109.55;;;;;;;0.52;88.55;99307.03;1758961;81;21159;-77
2020/12/12 09:12:01;;;;;;;306.02;131.65;;;;;;;0.56;88.53;99310.21;1758555;81;21723;-78
2020/12/12 09:14:31;;;;;;;269.32;96.95;;;;;;;0.57;88.52;99314.47;1759131;81;21175;-77
2020/12/12 09:16:59;;;;;;;;;;;;;;;0.59;88.52;99306.00;1762048;81;21147;-76
2020/12/12 09:19:25;;;;;;;107.30;43.73;;;;;;;0.62;88.50;99314.91;1751083;81;22218;-76
2020/12/12 09:21:52;;;;;;;107.22;40.28;;;;;;;0.64;88.50;99307.73;1740431;81;21140;-76
2020/12/12 09:24:19;;;;;;;112.25;42.55;;;;;;;0.65;88.51;99304.16;1740094;82;21199;-77
2020/12/12 09:26:47;;;;;;;149.35;48.50;;;;;;;0.66;88.50;99304.03;1758836;81;21145;-77
2020/12/12 09:29:13;;;;;;;95.53;34.88;;;;;;;0.69;88.50;99306.38;1758612;81;21203;-77
2020/12/12 09:31:39;;;;;;;90.97;33.05;;;;;;;0.70;88.48;99304.59;1708257;82;22131;-77
2020/12/12 09:34:06;;;;;;;75.45;31.05;;;;;;;0.70;88.48;99301.97;1733746;82;21632;-77
2020/12/12 09:36:32;;;;;;;82.00;32.13;;;;;;;0.72;88.49;99302.17;1736564;82;21183;-77
2020/12/12 09:38:58;;;;;;;95.70;33.85;;;;;;;0.73;88.46;99307.78;1739172;82;21135;-77
2020/12/12 09:41:25;;;;;;;77.97;32.13;;;;;;;0.76;88.48;99305.36;1740540;82;21163;-78
2020/12/12 09:43:51;;;;;;;103.75;38.95;;;;;;;0.77;88.46;99308.34;1738800;82;21222;-78
2020/12/12 09:46:18;;;;;;;82.85;36.85;;;;;;;0.79;88.45;99311.64;1755394;81;21220;-78
2020/12/12 09:48:46;;;;;;;114.77;40.35;;;;;;;0.81;88.43;99305.80;1751614;81;21155;-78
2020/12/12 09:51:14;;;;;;;100.18;39.38;;;;;;;0.84;88.43;99306.83;1757050;81;21168;-77
2020/12/12 09:53:42;;;;;;;100.35;37.00;;;;;;;0.84;88.42;99309.45;1759374;81;21183;-78
2020/12/12 09:56:13;;;;;;;75.80;33.18;;;;;;;0.82;88.41;99304.81;1748603;81;21197;-78
2020/12/12 09:58:40;;;;;;;98.55;37.78;;;;;;;0.82;88.40;99303.50;1750892;81;21215;-78
2020/12/12 10:01:06;;;;;;;96.42;39.25;;;;;;;0.86;88.38;99308.83;1712662;83;21743;-77
2020/12/12 10:03:32;;;;;;;86.02;35.52;;;;;;;0.91;88.36;99317.14;1731070;82;21640;-76
2020/12/12 10:05:58;;;;;;;93.78;39.67;;;;;;;0.92;88.37;99312.22;1719808;82;21153;-77
2020/12/12 10:08:25;;;;;;;94.95;39.33;;;;;;;0.96;88.36;99313.61;1729713;82;21268;-76
2020/12/12 10:10:53;;;;;;;114.95;44.67;;;;;;;1.01;88.34;99316.66;1737849;82;21187;-78
2020/12/12 10:13:20;;;;;;;92.33;37.63;;;;;;;1.01;88.34;99314.04;1737062;82;21499;-77
2020/12/12 10:15:47;;;;;;;118.72;52.67;;;;;;;1.01;88.32;99314.04;1737908;82;21222;-78
2020/12/12 10:18:13;;;;;;;143.37;53.58;;;;;;;1.03;88.29;99318.66;1725815;83;21167;-76
2020/12/12 10:20:39;;;;;;;109.40;41.40;;;;;;;1.02;88.28;99322.75;1745967;81;22018;-78
2020/12/12 10:23:06;;;;;;;101.40;37.53;;;;;;;1.02;88.28;99324.90;1743376;81;21188;-79
2020/12/12 10:25:32;;;;;;;112.88;44.35;;;;;;;1.02;88.27;99317.02;1736022;82;21169;-79
2020/12/12 10:27:58;;;;;;;159.57;64.62;;;;;;;1.01;88.24;99323.23;1733440;81;21196;-76
2020/12/12 10:30:24;;;;;;;177.07;71.53;;;;;;;1.03;88.25;99325.70;1758824;81;21152;-74
2020/12/12 10:32:51;;;;;;;202.25;79.30;;;;;;;1.02;88.21;99319.65;1726691;83;21617;-75
2020/12/12 10:35:17;;;;;;;178.57;78.47;;;;;;;1.01;88.18;99332.42;1758810;81;21163;-76
2020/12/12 10:37:43;;;;;;;134.00;61.33;;;;;;;1.01;88.18;99336.35;1759684;80;21143;-76
2020/12/12 10:40:15;;;;;;;116.05;50.17;;;;;;;1.01;88.17;99336.35;1761392;80;21417;-79
2020/12/12 10:42:39;;;;;;;87.22;40.50;;;;;;;1.02;88.15;99335.39;1755704;81;21159;-79
2020/12/12 10:45:06;;;;;;;90.57;38.55;;;;;;;1.02;88.14;99338.50;1740930;81;22123;-81
2020/12/12 10:47:33;;;;;;;87.15;37.03;;;;;;;1.00;88.14;99332.06;1728644;83;21160;-70
2020/12/12 10:49:59;;;;;;;98.40;43.25;;;;;;;0.98;88.10;99334.84;1712083;83;21212;-70
2020/12/12 10:52:26;;;;;;;101.20;43.68;;;;;;;0.95;88.10;99336.39;1732810;82;21163;-71
2020/12/12 10:54:52;;;;;;;111.22;47.88;;;;;;;0.92;88.09;99332.73;1758687;81;22298;-70
2020/12/12 10:57:19;;;;;;;91.47;37.08;;;;;;;0.89;88.08;99332.17;1757544;81;21518;-71
2020/12/12 10:59:46;;;;;;;130.93;52.08;;;;;;;0.84;88.07;99324.72;1721924;83;21148;-84
2020/12/12 11:02:12;;;;;;;181.87;74.07;;;;;;;0.84;88.06;99326.52;1722675;81;21190;-84
2020/12/12 11:04:39;;;;;;;166.20;62.65;;;;;;;0.85;88.06;99320.28;1721705;83;21167;-85
2020/12/12 11:07:06;;;;;;;139.72;55.48;;;;;;;0.86;88.05;99324.09;1723503;83;21180;-72
2020/12/12 11:09:33;;;;;;;136.05;55.08;;;;;;;0.86;88.02;99320.64;1705181;83;22172;-72
2020/12/12 11:12:00;;;;;;;197.17;76.37;;;;;;;0.84;88.03;99329.97;1725274;82;21227;-71
2020/12/12 11:14:29;;;;;;;183.85;79.58;;;;;;;0.81;88.01;99322.34;1752302;81;21597;-71
2020/12/12 11:16:56;;;;;;;267.68;83.97;;;;;;;0.82;87.99;99317.93;1726798;81;21200;-72
2020/12/12 11:19:22;;;;;;;203.75;72.78;;;;;;;0.83;87.99;99318.28;1732627;82;21187;-71
2020/12/12 11:21:48;;;;;;;144.97;56.88;;;;;;;0.84;88.00;99313.39;1730645;82;21207;-72
2020/12/12 11:24:15;;;;;;;116.20;44.95;;;;;;;0.88;87.98;99316.10;1702258;82;21627;-72
2020/12/12 11:26:43;;;;;;;92.00;37.63;;;;;;;0.91;87.99;99318.45;1731955;82;21206;-72
2020/12/12 11:29:10;;;;;;;106.65;47.48;;;;;;;0.92;87.97;99314.84;1742100;80;21619;-72
2020/12/12 11:31:39;;;;;;;109.15;47.98;;;;;;;0.95;87.97;99312.77;1733132;81;21561;-72